Time;durP1;ratioP1;P1;durP2;ratioP2;P2;SDS_P1;SDS_P2;PMS_P1;PMS_P2;Temp;Humidity;BMP_temperature;BMP_pressure;BME280_temperature;BME280_humidity;BME280_pressure;Samples;Min_cycle;Max_cycle;Signal;HPM_P1;HPM_P2
2022/08/04 00:00:20;;;;;;;;;11.00;11.00;;;;;25.45;65.01;100194.41;5016269;28;46227;-76
2022/08/04 00:03:07;;;;;;;;;12.33;11.33;;;;;25.54;66.99;100217.25;5027081;28;45394;-76
2022/08/04 00:05:50;;;;;;;;;11.00;10.00;;;;;25.49;66.87;100214.75;5019167;28;45336;-76
2022/08/04 00:08:42;;;;;;;;;12.00;9.67;;;;;25.46;68.33;100211.31;5017181;28;45317;-76
2022/08/04 00:11:09;;;;;;;;;9.67;9.33;;;;;25.14;68.17;100170.56;5031675;28;45241;-76
2022/08/04 00:13:41;;;;;;;;;10.00;10.00;;;;;25.33;67.28;100205.56;5035583;28;45515;-76
2022/08/04 00:16:08;;;;;;;;;10.67;10.33;;;;;25.34;66.82;100197.44;5028361;28;45544;-76
2022/08/04 00:18:41;;;;;;;;;11.00;11.00;;;;;25.34;66.77;100200.13;5027756;28;45462;-76
2022/08/04 00:21:10;;;;;;;;;12.67;11.00;;;;;25.38;66.35;100198.22;5019020;28;45917;-76
2022/08/04 00:23:38;;;;;;;;;10.33;10.00;;;;;25.35;66.49;100188.53;5029938;28;45345;-77
2022/08/04 00:26:04;;;;;;;;;9.00;9.00;;;;;25.32;67.03;100188.63;5016445;28;45556;-77
2022/08/04 00:28:30;;;;;;;;;10.00;9.33;;;;;25.29;67.47;100180.72;5028262;28;45536;-76
2022/08/04 00:30:56;;;;;;;;;12.67;11.33;;;;;24.96;66.98;100127.53;5019919;28;46607;-76
2022/08/04 00:33:22;;;;;;;;;13.00;11.67;;;;;25.24;67.82;100177.34;5031594;28;45362;-76
2022/08/04 00:35:48;;;;;;;;;13.33;12.33;;;;;25.21;67.99;100174.75;5024973;28;45323;-76
2022/08/04 00:38:16;;;;;;;;;11.00;10.67;;;;;25.18;68.65;100173.03;5023263;28;45336;-76
2022/08/04 00:41:05;;;;;;;;;11.33;10.67;;;;;25.20;68.12;100163.16;5016742;28;46089;-75
2022/08/04 00:43:33;;;;;;;;;12.67;11.33;;;;;25.09;68.21;100127.97;5035157;28;45437;-76
2022/08/04 00:46:17;;;;;;;;;12.67;12.67;;;;;25.08;68.92;100139.56;5035762;28;45362;-76
2022/08/04 00:49:02;;;;;;;;;11.33;10.33;;;;;25.01;68.71;100130.06;5033299;28;45560;-76
2022/08/04 00:51:42;;;;;;;;;9.33;9.33;;;;;25.01;68.20;100114.00;5024927;28;46309;-76
2022/08/04 00:54:33;;;;;;;;;11.33;10.67;;;;;24.95;68.44;100101.75;5020746;28;45625;-76
2022/08/04 00:57:18;;;;;;;;;12.33;10.00;;;;;24.83;68.65;100106.66;5020768;28;45603;-76
2022/08/04 01:00:02;;;;;;;;;9.67;9.33;;;;;24.81;68.82;100114.75;5023506;28;45292;-76
2022/08/04 01:02:44;;;;;;;;;12.33;12.00;;;;;24.73;68.97;100088.28;5031448;28;45967;-76
2022/08/04 01:05:31;;;;;;;;;11.00;10.67;;;;;24.89;69.66;100119.78;5024576;28;45534;-76
2022/08/04 01:08:15;;;;;;;;;11.33;11.33;;;;;24.87;69.70;100117.19;5019765;28;45247;-76
2022/08/04 01:10:58;;;;;;;;;11.00;11.00;;;;;24.83;69.49;100122.69;5020288;28;45415;-76
2022/08/04 01:13:36;;;;;;;;;11.33;11.00;;;;;24.79;69.01;100128.13;5035450;28;46034;-76
2022/08/04 01:16:06;;;;;;;;;11.67;11.33;;;;;24.77;69.61;100134.44;5019723;28;45583;-75
2022/08/04 01:18:40;;;;;;;;;10.00;10.00;;;;;24.71;70.55;100140.00;5017417;28;45379;-76
2022/08/04 01:21:28;;;;;;;;;10.67;10.00;;;;;24.72;70.03;100145.31;5015214;28;45593;-76
2022/08/04 01:24:12;;;;;;;;;12.00;11.00;;;;;24.70;69.33;100133.78;5017912;28;45458;-76
2022/08/04 01:26:59;;;;;;;;;10.00;10.00;;;;;24.70;69.26;100140.94;5026811;28;45242;-76
2022/08/04 01:29:34;;;;;;;;;12.00;11.67;;;;;24.68;69.76;100140.13;5043534;28;45999;-76
2022/08/04 01:32:26;;;;;;;;;10.00;10.00;;;;;24.64;69.93;100136.69;5014823;28;45673;-76
2022/08/04 01:35:10;;;;;;;;;10.67;10.00;;;;;24.54;69.67;100109.44;5016378;28;45414;-76
2022/08/04 01:37:44;;;;;;;;;12.00;11.67;;;;;24.62;69.80;100127.84;5021459;28;45464;-76
2022/08/04 01:40:13;;;;;;;;;13.33;12.00;;;;;24.10;69.68;100036.19;5037591;28;45297;-76
2022/08/04 01:42:41;;;;;;;;;11.67;11.33;;;;;24.57;69.51;100124.47;5027248;28;45423;-76
2022/08/04 01:45:09;;;;;;;;;11.00;10.00;;;;;24.58;69.75;100127.09;5034526;28;45441;-76
2022/08/04 01:47:37;;;;;;;;;10.00;10.00;;;;;24.47;68.81;100102.53;5021236;28;45618;-75
2022/08/04 01:50:08;;;;;;;;;12.00;11.67;;;;;24.61;69.52;100135.00;5025481;28;45500;-76
2022/08/04 01:52:35;;;;;;;;;13.00;12.00;;;;;24.63;69.63;100132.28;5019174;28;45552;-76
2022/08/04 01:55:04;;;;;;;;;13.67;11.67;;;;;24.45;69.39;100093.69;5018827;28;45585;-76
2022/08/04 01:57:33;;;;;;;;;11.00;11.00;;;;;24.55;69.20;100110.28;5018878;28;45613;-76
2022/08/04 02:00:00;;;;;;;;;11.00;11.00;;;;;24.42;68.10;100092.00;5026644;28;45505;-76
2022/08/04 02:02:26;;;;;;;;;12.67;9.67;;;;;24.51;68.51;100105.97;5026500;28;45511;-76
2022/08/04 02:04:51;;;;;;;;;10.00;9.67;;;;;24.57;67.65;100116.44;5018968;28;46588;-75
2022/08/04 02:07:36;;;;;;;;;9.00;8.33;;;;;24.59;67.75;100106.59;5027290;28;45671;-76
2022/08/04 02:10:10;;;;;;;;;8.00;8.00;;;;;24.61;67.85;100115.41;5018790;28;45514;-76
2022/08/04 02:12:54;;;;;;;;;8.33;8.00;;;;;24.61;67.95;100118.97;5027861;28;45287;-76
2022/08/04 02:15:29;;;;;;;;;9.33;8.33;;;;;24.63;68.01;100113.59;5022546;28;45506;-76
2022/08/04 02:18:04;;;;;;;;;10.00;8.00;;;;;24.69;67.59;100110.69;5017998;28;45453;-76
2022/08/04 02:20:36;;;;;;;;;10.33;9.33;;;;;24.69;67.47;100110.69;5029346;28;45481;-76
2022/08/04 02:23:08;;;;;;;;;8.33;8.00;;;;;24.66;67.86;100102.78;5023000;28;45430;-76
2022/08/04 02:25:46;;;;;;;;;9.00;9.00;;;;;24.68;67.62;100102.72;5018308;28;45520;-76
2022/08/04 02:28:22;;;;;;;;;8.00;8.00;;;;;24.65;67.75;100108.16;5018681;28;45299;-76
2022/08/04 02:31:03;;;;;;;;;10.00;9.33;;;;;24.72;67.54;100107.03;5033964;28;45340;-76
2022/08/04 02:33:42;;;;;;;;;10.00;8.00;;;;;24.68;67.27;100098.25;5032905;28;45544;-76
2022/08/04 02:36:13;;;;;;;;;9.00;9.00;;;;;24.70;68.07;100104.41;5017928;28;45422;-76
2022/08/04 02:38:51;;;;;;;;;9.00;7.67;;;;;24.68;67.85;100105.41;5025083;28;45584;-76
2022/08/04 02:41:20;;;;;;;;;8.00;7.67;;;;;24.63;68.49;100105.59;5025463;28;47026;-76
2022/08/04 02:43:48;;;;;;;;;8.00;8.00;;;;;24.59;68.41;100099.47;5033934;28;45599;-76
2022/08/04 02:46:17;;;;;;;;;10.67;10.00;;;;;24.58;68.06;100105.72;5018763;28;45397;-76
2022/08/04 02:48:45;;;;;;;;;8.33;7.67;;;;;24.58;68.12;100110.19;5032794;28;45441;-76
2022/08/04 02:51:13;;;;;;;;;8.33;8.33;;;;;24.52;68.52;100116.63;5027990;28;45422;-76
2022/08/04 02:53:41;;;;;;;;;9.00;8.67;;;;;24.43;68.44;100100.88;5024417;28;45373;-76
2022/08/04 02:56:08;;;;;;;;;10.00;9.33;;;;;24.37;68.32;100090.41;5027671;28;46003;-76
2022/08/04 02:58:35;;;;;;;;;10.33;9.00;;;;;24.44;68.72;100101.75;5030949;28;45343;-76
2022/08/04 03:01:03;;;;;;;;;9.00;8.00;;;;;24.39;68.48;100092.13;5028020;28;45354;-76
2022/08/04 03:03:28;;;;;;;;;10.00;10.00;;;;;24.53;68.23;100112.13;5023291;28;45402;-76
2022/08/04 03:06:12;;;;;;;;;9.33;9.00;;;;;24.48;68.65;100103.41;5017700;28;46031;-76
2022/08/04 03:09:16;;;;;;;;;10.33;10.00;;;;;24.45;69.10;100106.16;5032800;28;45441;-76
2022/08/04 03:12:06;;;;;;;;;8.00;8.00;;;;;24.41;68.96;100092.03;5017933;28;45404;-76
2022/08/04 03:14:55;;;;;;;;;7.67;7.67;;;;;24.52;68.62;100108.59;5017854;28;45544;-76
2022/08/04 03:17:39;;;;;;;;;10.00;9.00;;;;;24.56;68.23;100109.38;5017603;28;45613;-76
2022/08/04 03:20:26;;;;;;;;;12.00;9.00;;;;;24.61;68.22;100104.72;5045609;28;45524;-76
2022/08/04 03:23:33;;;;;;;;;10.00;8.67;;;;;24.53;68.18;100097.00;5020363;28;45445;-76
2022/08/04 03:26:20;;;;;;;;;9.00;8.67;;;;;24.64;68.15;100106.44;5037233;28;45300;-76
2022/08/04 03:29:12;;;;;;;;;10.00;10.00;;;;;24.62;68.15;100106.50;5036130;28;46220;-76
2022/08/04 03:31:47;;;;;;;;;10.00;10.00;;;;;24.55;68.69;100108.50;5021803;28;45567;-75
2022/08/04 03:34:25;;;;;;;;;8.33;8.33;;;;;24.59;68.57;100114.59;5018118;28;45667;-76
2022/08/04 03:37:35;;;;;;;;;7.67;7.67;;;;;24.64;68.70;100112.66;5027150;28;45349;-76
2022/08/04 03:40:31;;;;;;;;;9.00;8.33;;;;;24.62;68.87;100117.16;5018951;28;46365;-76
2022/08/04 03:43:37;;;;;;;;;8.00;8.00;;;;;24.50;68.71;100090.88;5036966;28;45871;-76
2022/08/04 03:46:27;;;;;;;;;10.00;9.00;;;;;24.61;68.35;100113.63;5036478;28;46680;-76
2022/08/04 03:49:30;;;;;;;;;9.00;9.00;;;;;24.56;68.79;100112.03;5032647;28;45445;-76
2022/08/04 03:55:35;;;;;;;;;9.33;9.00;;;;;24.57;68.40;100116.44;5017196;28;45441;-76
2022/08/04 03:58:06;;;;;;;;;8.33;8.33;;;;;24.53;68.70;100118.38;5031535;28;45242;-76
2022/08/04 04:00:53;;;;;;;;;10.00;9.33;;;;;24.56;68.95;100117.38;5020413;28;45223;-76
2022/08/04 04:03:54;;;;;;;;;8.00;8.00;;;;;24.59;68.44;100119.94;5036237;28;45415;-76
2022/08/04 04:06:34;;;;;;;;;8.00;8.00;;;;;24.60;68.55;100122.56;4981330;28;45597;-76
2022/08/04 04:09:22;;;;;;;;;10.00;9.00;;;;;24.31;68.77;100074.59;5027664;28;45314;-76
2022/08/04 04:12:07;;;;;;;;;9.67;9.00;;;;;24.59;68.75;100126.19;5017735;28;45387;-75
2022/08/04 04:14:53;;;;;;;;;8.67;8.33;;;;;24.59;68.38;100134.19;5020438;28;45526;-76
2022/08/04 04:17:41;;;;;;;;;8.67;8.00;;;;;24.60;68.84;100135.03;5036265;28;45511;-76
2022/08/04 04:20:40;;;;;;;;;9.67;9.00;;;;;24.35;69.16;100103.81;5032996;28;45751;-76
2022/08/04 04:23:33;;;;;;;;;11.67;10.67;;;;;24.48;69.05;100130.97;5028008;28;45508;-76
2022/08/04 04:25:58;;;;;;;;;12.67;11.33;;;;;24.55;68.71;100134.31;5019719;28;45406;-76
2022/08/04 04:28:56;;;;;;;;;9.00;9.00;;;;;24.40;69.75;100143.72;5029233;28;45568;-76
2022/08/04 04:31:28;;;;;;;;;11.00;10.33;;;;;24.45;69.30;100147.06;5016350;28;45389;-76
2022/08/04 04:34:12;;;;;;;;;10.00;10.00;;;;;24.50;68.97;100146.94;5020202;28;45308;-76
2022/08/04 04:37:08;;;;;;;;;11.00;9.33;;;;;24.53;68.88;100149.53;5025623;28;46309;-76
2022/08/04 04:39:55;;;;;;;;;8.00;8.00;;;;;24.56;68.99;100154.78;5031704;28;45468;-76
2022/08/04 04:42:48;;;;;;;;;11.00;11.00;;;;;24.56;68.79;100149.44;5025204;28;45477;-76
2022/08/04 04:45:38;;;;;;;;;9.00;9.00;;;;;24.27;69.35;100113.88;5019432;28;45461;-75
2022/08/04 04:48:07;;;;;;;;;9.67;8.33;;;;;24.45;69.64;100157.75;5031740;28;45708;-76
2022/08/04 04:50:38;;;;;;;;;9.00;9.00;;;;;24.46;68.86;100155.97;5023840;28;45422;-76
2022/08/04 04:53:26;;;;;;;;;10.67;9.67;;;;;24.48;69.05;100160.34;5032233;28;45510;-75
2022/08/04 04:56:05;;;;;;;;;9.67;9.00;;;;;24.25;69.46;100131.72;5028409;28;45366;-76
2022/08/04 04:58:33;;;;;;;;;9.00;9.00;;;;;24.47;69.32;100160.38;5016110;28;45506;-76
2022/08/04 05:01:25;;;;;;;;;8.67;8.00;;;;;24.47;69.39;100158.59;5025500;28;45581;-75
2022/08/04 05:04:23;;;;;;;;;10.67;9.00;;;;;24.42;69.12;100147.19;5016587;28;45358;-76
2022/08/04 05:07:10;;;;;;;;;10.00;9.00;;;;;24.51;69.22;100173.63;5016780;28;45308;-75
2022/08/04 05:09:51;;;;;;;;;11.00;10.00;;;;;24.48;69.27;100172.81;5016170;28;45456;-76
2022/08/04 05:12:34;;;;;;;;;10.00;9.33;;;;;24.16;68.97;100113.38;5023163;28;45459;-75
2022/08/04 05:15:06;;;;;;;;;10.00;9.00;;;;;24.49;69.07;100164.78;5019144;28;45432;-76
2022/08/04 05:17:40;;;;;;;;;9.33;8.33;;;;;24.48;69.30;100163.00;5021447;28;45465;-76
2022/08/04 05:20:18;;;;;;;;;9.67;9.67;;;;;24.50;68.54;100174.53;5035528;28;45439;-76
2022/08/04 05:22:55;;;;;;;;;11.00;10.00;;;;;24.50;68.76;100173.66;5039089;28;45516;-76
2022/08/04 05:25:45;;;;;;;;;11.00;9.33;;;;;24.47;68.89;100171.97;5039323;28;45475;-76
2022/08/04 05:28:15;;;;;;;;;9.00;8.00;;;;;24.50;68.87;100171.88;5034674;28;45350;-75
2022/08/04 05:30:48;;;;;;;;;8.00;8.00;;;;;24.49;68.86;100174.56;5028907;28;45306;-76
2022/08/04 05:33:26;;;;;;;;;9.33;9.33;;;;;24.52;68.33;100179.84;5024820;28;45524;-75
2022/08/04 05:35:57;;;;;;;;;9.00;9.00;;;;;24.50;68.11;100178.97;5023517;28;45332;-76
2022/08/04 05:38:28;;;;;;;;;8.00;8.00;;;;;24.55;68.34;100177.03;5030855;28;45550;-76
2022/08/04 05:40:56;;;;;;;;;10.67;10.00;;;;;24.22;68.11;100122.03;5033007;28;45982;-75
2022/08/04 05:43:25;;;;;;;;;10.00;9.00;;;;;24.53;68.29;100181.56;5038067;28;45397;-76
2022/08/04 05:45:52;;;;;;;;;11.67;10.00;;;;;24.52;68.69;100175.38;5033069;28;45417;-76
2022/08/04 05:48:18;;;;;;;;;10.33;9.33;;;;;24.51;68.65;100183.41;5022957;28;45484;-76
2022/08/04 05:50:45;;;;;;;;;9.00;9.00;;;;;24.16;68.06;100124.03;5032821;28;46123;-75
2022/08/04 05:53:13;;;;;;;;;12.00;10.67;;;;;24.35;68.46;100159.00;5033853;28;45236;-76
2022/08/04 05:55:38;;;;;;;;;10.00;10.00;;;;;24.41;68.74;100180.13;5019049;28;45473;-76
2022/08/04 05:58:05;;;;;;;;;9.67;8.33;;;;;24.23;68.81;100157.59;5029417;28;45360;-76
2022/08/04 06:00:33;;;;;;;;;10.33;10.00;;;;;24.40;68.85;100176.59;5038587;28;45500;-76
2022/08/04 06:03:00;;;;;;;;;11.67;11.67;;;;;24.34;68.25;100155.47;5019366;28;45457;-76
2022/08/04 06:05:27;;;;;;;;;12.33;11.67;;;;;24.44;68.06;100173.84;5025772;28;45542;-76
2022/08/04 06:07:52;;;;;;;;;10.67;10.00;;;;;24.29;68.79;100159.19;5038936;28;45237;-76
2022/08/04 06:10:18;;;;;;;;;11.00;11.00;;;;;24.37;68.46;100171.38;5038112;28;46030;-75
2022/08/04 06:12:54;;;;;;;;;10.67;10.00;;;;;24.36;68.30;100177.63;5019332;28;45173;-76
2022/08/04 06:15:23;;;;;;;;;11.00;10.00;;;;;24.36;68.51;100174.97;5033827;28;45636;-76
2022/08/04 06:17:54;;;;;;;;;12.00;12.00;;;;;24.35;68.52;100181.25;5037670;28;45911;-75
2022/08/04 06:20:24;;;;;;;;;11.00;11.00;;;;;24.35;68.08;100180.34;5033122;28;45974;-75
2022/08/04 06:22:54;;;;;;;;;12.33;12.00;;;;;24.35;68.43;100173.22;5017687;28;45318;-75
2022/08/04 06:25:24;;;;;;;;;11.67;10.67;;;;;24.39;68.27;100177.56;5018563;28;45492;-74
2022/08/04 06:27:51;;;;;;;;;11.33;10.33;;;;;24.43;67.75;100178.28;5037375;28;45328;-74
2022/08/04 06:30:18;;;;;;;;;13.67;12.67;;;;;24.40;68.35;100175.75;5029952;28;45515;-76
2022/08/04 06:33:12;;;;;;;;;12.00;11.00;;;;;24.35;68.27;100167.91;5018219;28;45480;-75
2022/08/04 06:35:34;;;;;;;;;12.00;11.67;;;;;24.24;68.12;100138.00;5020929;28;45660;-76
2022/08/04 06:38:01;;;;;;;;;9.33;9.00;;;;;24.55;67.95;100177.03;5031438;28;45371;-76
2022/08/04 06:40:28;;;;;;;;;10.00;10.00;;;;;24.43;67.51;100148.94;5028207;28;45482;-76
2022/08/04 06:42:55;;;;;;;;;11.00;11.00;;;;;24.60;67.54;100173.31;5023367;28;45520;-76
2022/08/04 06:45:21;;;;;;;;;9.67;9.00;;;;;24.48;67.22;100146.97;5033971;28;45527;-75
2022/08/04 06:47:48;;;;;;;;;11.00;11.00;;;;;24.57;66.82;100146.72;5022857;28;45345;-76
2022/08/04 06:50:15;;;;;;;;;11.00;11.00;;;;;24.81;67.55;100177.03;5028069;28;46352;-76
2022/08/04 06:52:43;;;;;;;;;10.67;9.67;;;;;24.91;67.00;100180.28;5017760;28;45454;-76
2022/08/04 06:55:09;;;;;;;;;10.00;9.67;;;;;25.03;67.04;100181.63;5017926;28;45497;-75
2022/08/04 06:57:36;;;;;;;;;10.00;10.00;;;;;25.12;66.55;100173.28;5022906;28;45279;-76
2022/08/04 07:00:11;;;;;;;;;12.00;10.00;;;;;25.29;66.21;100182.53;5027676;28;45509;-76
2022/08/04 07:02:51;;;;;;;;;11.00;9.67;;;;;25.47;64.95;100183.66;5017993;28;45295;-76
2022/08/04 07:05:18;;;;;;;;;11.00;11.00;;;;;25.49;64.51;100165.75;5021675;28;45324;-76
2022/08/04 07:07:45;;;;;;;;;10.00;10.00;;;;;25.67;63.44;100174.88;5036666;28;45565;-76
2022/08/04 07:10:11;;;;;;;;;10.00;10.00;;;;;25.87;63.28;100184.81;5024714;28;45270;-76
2022/08/04 07:12:39;;;;;;;;;11.00;9.67;;;;;26.03;62.75;100185.97;5032644;28;45417;-75
2022/08/04 07:15:06;;;;;;;;;11.00;11.00;;;;;25.80;62.52;100141.34;5033152;28;45386;-76
2022/08/04 07:17:34;;;;;;;;;9.67;9.67;;;;;26.28;62.32;100180.50;5025759;28;45330;-76
2022/08/04 07:20:01;;;;;;;;;10.33;9.00;;;;;26.32;61.24;100154.44;5035921;28;46211;-76
2022/08/04 07:22:27;;;;;;;;;8.33;8.33;;;;;26.65;60.87;100189.69;5036427;28;45445;-76
2022/08/04 07:24:55;;;;;;;;;10.67;9.00;;;;;26.82;60.37;100196.13;5036788;28;45526;-76
2022/08/04 07:27:21;;;;;;;;;11.67;10.67;;;;;26.81;60.20;100170.28;5037104;28;45556;-76
2022/08/04 07:29:47;;;;;;;;;11.00;11.00;;;;;26.95;59.85;100192.00;5023701;28;45552;-76
2022/08/04 07:32:14;;;;;;;;;11.67;10.33;;;;;27.00;59.27;100163.19;5032302;28;45468;-76
2022/08/04 07:34:41;;;;;;;;;11.00;10.33;;;;;26.93;58.53;100162.56;5036220;28;45488;-76
2022/08/04 07:37:07;;;;;;;;;6.00;5.00;;;;;27.10;58.46;100177.94;5036786;28;45402;-77
2022/08/04 07:39:35;;;;;;;;;10.33;8.00;;;;;27.31;57.74;100177.94;5036117;28;46084;-77
2022/08/04 07:42:03;;;;;;;;;8.00;7.33;;;;;26.83;57.64;100053.19;5035637;28;45873;-76
2022/08/04 07:44:30;;;;;;;;;9.67;8.00;;;;;27.70;56.97;100166.31;5036881;28;45554;-77
2022/08/04 07:46:56;;;;;;;;;10.33;9.33;;;;;27.93;56.60;100186.69;5036375;28;45527;-77
2022/08/04 07:49:22;;;;;;;;;7.00;7.00;;;;;28.10;56.24;100189.44;5023937;28;45428;-77
2022/08/04 07:51:49;;;;;;;;;8.00;8.00;;;;;28.22;56.23;100157.59;5025668;28;46125;-76
2022/08/04 07:54:17;;;;;;;;;8.67;8.33;;;;;28.44;55.02;100160.06;5021834;28;45544;-77
2022/08/04 07:56:43;;;;;;;;;9.00;9.00;;;;;28.66;53.51;100182.22;5026386;28;45405;-75
2022/08/04 07:59:08;;;;;;;;;9.67;9.33;;;;;28.72;53.50;100181.91;5029622;28;45433;-76
2022/08/04 08:01:35;;;;;;;;;7.33;7.00;;;;;28.95;53.71;100182.56;5019452;28;45926;-76
2022/08/04 08:04:04;;;;;;;;;8.33;8.33;;;;;29.26;53.03;100181.81;5036603;28;45290;-76
2022/08/04 08:06:29;;;;;;;;;8.00;7.33;;;;;29.49;51.88;100175.22;5027039;28;46245;-77
2022/08/04 08:08:56;;;;;;;;;10.00;8.00;;;;;29.66;50.45;100176.94;5016221;28;45797;-76
2022/08/04 08:11:22;;;;;;;;;8.67;8.00;;;;;30.01;51.29;100184.06;5033139;28;45642;-76
2022/08/04 08:13:48;;;;;;;;;7.67;7.67;;;;;30.09;50.02;100146.78;5030219;28;45857;-76
2022/08/04 08:16:15;;;;;;;;;7.00;7.00;;;;;30.37;49.94;100148.75;5016402;28;45478;-76
2022/08/04 08:18:40;;;;;;;;;7.00;7.00;;;;;30.88;49.27;100170.00;5016318;28;45539;-76
2022/08/04 08:21:09;;;;;;;;;6.33;6.33;;;;;31.01;47.78;100144.03;5031607;28;45651;-76
2022/08/04 08:23:35;;;;;;;;;7.00;7.00;;;;;31.24;46.82;100155.25;5021987;28;45473;-75
2022/08/04 08:26:01;;;;;;;;;7.67;7.00;;;;;31.62;46.53;100176.28;5026431;28;45466;-76
2022/08/04 08:28:26;;;;;;;;;6.67;6.67;;;;;31.73;46.96;100179.16;5016045;28;45518;-76
2022/08/04 08:30:52;;;;;;;;;8.00;7.00;;;;;31.95;45.54;100167.81;5031198;28;45332;-77
2022/08/04 08:33:19;;;;;;;;;6.00;6.00;;;;;32.50;44.95;100169.59;5020890;28;45485;-77
2022/08/04 08:36:00;;;;;;;;;8.00;6.67;;;;;34.11;43.17;100178.16;5035730;28;45426;-77
2022/08/04 08:38:49;;;;;;;;;6.00;6.00;;;;;35.02;38.05;100138.75;5034934;28;45593;-77
2022/08/04 08:41:34;;;;;;;;;7.67;6.67;;;;;34.49;40.07;100179.00;5021668;28;45925;-76
2022/08/04 08:44:14;;;;;;;;;6.33;6.33;;;;;34.31;41.40;100181.28;5022216;28;45418;-77
2022/08/04 08:46:50;;;;;;;;;6.33;6.33;;;;;34.41;40.39;100176.88;5034967;28;45479;-75
2022/08/04 08:49:40;;;;;;;;;5.67;5.00;;;;;34.04;41.48;100179.59;5033954;28;46271;-76
2022/08/04 08:52:46;;;;;;;;;6.00;6.00;;;;;33.40;41.54;100145.34;5038319;28;45578;-76
2022/08/04 08:55:21;;;;;;;;;5.67;5.67;;;;;33.37;41.49;100140.19;5039731;28;45740;-78
2022/08/04 08:58:06;;;;;;;;;6.67;5.67;;;;;33.80;42.03;100185.84;5034794;28;45477;-77
2022/08/04 09:00:35;;;;;;;;;5.00;4.67;;;;;33.83;42.34;100179.34;5034675;28;45588;-77
2022/08/04 09:03:42;;;;;;;;;6.00;6.00;;;;;33.85;41.63;100186.38;5032812;28;45443;-77
2022/08/04 09:06:35;;;;;;;;;5.33;5.33;;;;;33.60;40.92;100178.25;5029150;28;45377;-76
2022/08/04 09:09:01;;;;;;;;;7.33;7.00;;;;;33.10;42.36;100134.88;5019036;28;45307;-74
2022/08/04 09:11:40;;;;;;;;;5.00;4.00;;;;;33.37;41.74;100179.94;5025102;28;45886;-77
2022/08/04 09:14:32;;;;;;;;;6.33;6.00;;;;;33.21;42.26;100181.03;5037598;28;45314;-76
2022/08/04 09:17:10;;;;;;;;;5.67;5.67;;;;;33.29;42.36;100178.63;5035239;28;45490;-76
2022/08/04 09:19:49;;;;;;;;;6.00;6.00;;;;;33.36;42.70;100179.03;5030762;28;45414;-76
2022/08/04 09:22:21;;;;;;;;;5.33;5.33;;;;;33.26;40.86;100172.56;5033896;28;45416;-77
2022/08/04 09:25:06;;;;;;;;;8.00;7.00;;;;;32.96;41.83;100172.84;5035832;28;45540;-77
2022/08/04 09:27:50;;;;;;;;;5.67;5.33;;;;;32.46;42.55;100183.44;5034054;28;45348;-77
2022/08/04 09:30:22;;;;;;;;;5.67;5.67;;;;;32.44;43.67;100174.56;5036036;28;45570;-80
2022/08/04 09:33:17;;;;;;;;;7.00;6.00;;;;;32.58;43.96;100177.22;5032850;28;45641;-76
2022/08/04 09:36:25;;;;;;;;;6.00;6.00;;;;;32.61;43.70;100178.84;5034170;28;45408;-79
2022/08/04 09:39:02;;;;;;;;;6.00;6.00;;;;;32.59;44.07;100178.97;5001259;28;45545;-79
2022/08/04 09:41:38;;;;;;;;;6.00;5.67;;;;;32.48;44.27;100176.06;5036986;28;45889;-79
2022/08/04 09:44:15;;;;;;;;;8.00;8.00;;;;;31.88;44.58;100150.28;5036057;28;46048;-78
2022/08/04 09:46:52;;;;;;;;;5.67;5.00;;;;;31.79;45.35;100178.75;5035837;28;45504;-79
2022/08/04 09:49:23;;;;;;;;;6.00;6.00;;;;;31.67;46.22;100184.94;5050206;28;45898;-79
2022/08/04 09:51:57;;;;;;;;;6.33;6.00;;;;;31.58;45.51;100193.66;5034426;28;45451;-78
2022/08/04 09:54:42;;;;;;;;;7.67;7.67;;;;;31.40;46.54;100191.09;5033864;28;46309;-78
2022/08/04 09:57:23;;;;;;;;;7.00;6.00;;;;;31.27;46.77;100199.09;5032441;28;45352;-78
2022/08/04 10:00:12;;;;;;;;;7.67;7.00;;;;;31.07;47.33;100192.22;5027808;28;45552;-78
2022/08/04 10:02:41;;;;;;;;;6.33;5.67;;;;;31.02;47.48;100188.06;5018911;28;45441;-78
2022/08/04 10:05:20;;;;;;;;;4.67;4.67;;;;;30.80;47.11;100159.69;5017907;28;46386;-78
2022/08/04 10:08:10;;;;;;;;;6.33;5.33;;;;;30.98;47.71;100198.19;5019029;28;45533;-78
2022/08/04 10:11:06;;;;;;;;;4.67;4.33;;;;;30.87;47.88;100193.41;5031987;28;45476;-82
2022/08/04 10:13:38;;;;;;;;;5.00;5.00;;;;;30.73;47.67;100167.25;5028862;28;45371;-78
2022/08/04 10:16:23;;;;;;;;;7.00;6.00;;;;;30.82;47.38;100182.03;5032616;28;47253;-79
2022/08/04 10:19:14;;;;;;;;;6.00;6.00;;;;;30.80;47.55;100196.56;5033502;28;45457;-83
2022/08/04 10:22:10;;;;;;;;;5.33;5.00;;;;;30.38;48.15;100131.66;5035056;28;45473;-77
2022/08/04 10:24:48;;;;;;;;;8.00;8.00;;;;;30.67;47.67;100178.41;5028619;28;45571;-76
2022/08/04 10:27:35;;;;;;;;;6.67;6.33;;;;;30.84;47.69;100192.69;5051505;28;47114;-78
2022/08/04 10:30:11;;;;;;;;;6.33;5.67;;;;;30.91;47.54;100189.59;5036108;28;45504;-77
2022/08/04 10:32:46;;;;;;;;;6.33;6.33;;;;;30.72;47.38;100191.66;5033071;28;45449;-78
2022/08/04 10:35:22;;;;;;;;;7.67;5.33;;;;;30.78;47.29;100195.78;5034976;28;45519;-78
2022/08/04 10:38:13;;;;;;;;;7.00;7.00;;;;;30.86;47.57;100193.50;5034358;28;46166;-74
2022/08/04 10:40:49;;;;;;;;;6.00;6.00;;;;;30.80;47.41;100173.16;5034197;28;45492;-75
2022/08/04 10:43:32;;;;;;;;;6.33;6.33;;;;;30.95;47.52;100190.28;5033923;28;45536;-76
2022/08/04 10:46:20;;;;;;;;;7.33;6.33;;;;;31.04;47.39;100192.41;5033160;28;45715;-77
2022/08/04 10:48:58;;;;;;;;;5.00;5.00;;;;;30.86;47.51;100166.53;5018219;28;46102;-76
2022/08/04 10:51:43;;;;;;;;;5.67;5.33;;;;;30.93;47.77;100192.19;5032892;28;45606;-79
2022/08/04 10:54:16;;;;;;;;;7.00;6.33;;;;;30.95;47.74;100194.81;5033509;28;45445;-77
2022/08/04 10:57:06;;;;;;;;;5.67;5.67;;;;;30.86;47.72;100191.69;5049307;28;45655;-76
2022/08/04 11:00:00;;;;;;;;;5.00;5.00;;;;;30.80;48.30;100189.34;5031601;28;45252;-75
2022/08/04 11:02:36;;;;;;;;;7.00;6.00;;;;;30.63;48.25;100174.16;5025584;28;45516;-76
2022/08/04 11:05:26;;;;;;;;;8.67;8.67;;;;;30.67;48.58;100202.69;5020991;28;45311;-75
2022/08/04 11:07:58;;;;;;;;;6.00;5.00;;;;;29.72;49.43;100111.16;5016281;28;45451;-76
2022/08/04 11:10:28;;;;;;;;;6.00;6.00;;;;;30.22;49.21;100204.41;5017204;28;46079;-76
2022/08/04 11:12:59;;;;;;;;;4.67;4.67;;;;;29.99;49.31;100165.28;5016810;28;45628;-76
2022/08/04 11:15:34;;;;;;;;;6.00;6.00;;;;;30.12;50.18;100206.75;5016009;28;45574;-76
2022/08/04 11:18:07;;;;;;;;;5.67;5.67;;;;;30.00;50.23;100198.47;5024174;28;45288;-77
2022/08/04 11:20:45;;;;;;;;;12.33;11.33;;;;;29.87;50.30;100187.53;5030552;28;45608;-78
2022/08/04 11:23:16;;;;;;;;;8.33;7.00;;;;;29.94;50.22;100203.25;5016429;28;45583;-76
2022/08/04 11:25:56;;;;;;;;;7.00;6.00;;;;;29.98;49.93;100208.47;5025167;28;45411;-76
2022/08/04 11:28:25;;;;;;;;;5.00;5.00;;;;;29.97;50.11;100202.22;5020520;28;45536;-78
2022/08/04 11:31:15;;;;;;;;;6.00;6.00;;;;;29.91;50.26;100194.47;5034263;28;46228;-76
2022/08/04 11:34:03;;;;;;;;;8.00;7.00;;;;;29.94;50.08;100202.38;5036473;28;45532;-76
2022/08/04 11:36:38;;;;;;;;;5.33;5.33;;;;;29.77;50.11;100180.94;5067549;28;45488;-76
2022/08/04 11:39:17;;;;;;;;;5.00;5.00;;;;;29.88;50.29;100200.91;5030163;28;45410;-77
2022/08/04 11:42:22;;;;;;;;;5.67;5.00;;;;;29.71;50.93;100199.16;5016984;28;46250;-77
2022/08/04 11:45:04;;;;;;;;;4.33;4.33;;;;;29.70;50.68;100215.34;5010426;28;45608;-76
2022/08/04 11:47:57;;;;;;;;;8.33;8.00;;;;;29.72;50.96;100216.16;5015842;28;45900;-77
2022/08/04 11:50:40;;;;;;;;;6.67;6.00;;;;;29.39;51.43;100165.91;5015912;28;45358;-75
2022/08/04 11:53:07;;;;;;;;;8.00;7.67;;;;;29.15;52.68;100203.91;5015241;28;45630;-76
2022/08/04 11:55:36;;;;;;;;;6.00;6.00;;;;;28.88;53.29;100205.31;5015707;28;45513;-76
2022/08/04 11:58:01;;;;;;;;;10.00;9.00;;;;;28.72;54.21;100207.94;5016339;28;45457;-76
2022/08/04 12:00:30;;;;;;;;;8.33;7.67;;;;;28.64;53.84;100183.25;5020734;28;45465;-77
2022/08/04 12:03:23;;;;;;;;;11.33;8.33;;;;;28.96;53.27;100209.34;5025584;28;45536;-76
2022/08/04 12:05:55;;;;;;;;;6.00;6.00;;;;;28.72;54.03;100208.78;5016481;28;45383;-76